Time;durP1;ratioP1;P1;durP2;ratioP2;P2;SDS_P1;SDS_P2;PMS_P1;PMS_P2;Temp;Humidity;BMP_temperature;BMP_pressure;BME280_temperature;BME280_humidity;BME280_pressure;Samples;Min_cycle;Max_cycle;Signal;HPM_P1;HPM_P2
2023/05/14 00:02:03;;;;;;;12.30;11.10;;;11.20;99.90;;;;;;4979736;28;20207;-78
2023/05/14 00:04:30;;;;;;;14.07;12.63;;;11.20;99.90;;;;;;4961969;28;20209;-78
2023/05/14 00:06:57;;;;;;;11.83;9.87;;;11.20;99.90;;;;;;4981828;28;20273;-79
2023/05/14 00:09:24;;;;;;;10.20;9.20;;;11.20;99.90;;;;;;4985084;28;20278;-79
2023/05/14 00:11:51;;;;;;;9.93;8.87;;;11.20;99.90;;;;;;4964814;28;20667;-79
2023/05/14 00:14:18;;;;;;;10.23;8.80;;;11.20;99.90;;;;;;4964707;28;20202;-78
2023/05/14 00:16:46;;;;;;;9.80;8.80;;;11.10;99.90;;;;;;4977049;28;20218;-78
2023/05/14 00:19:13;;;;;;;9.40;8.50;;;11.10;99.90;;;;;;4966451;28;20199;-78
2023/05/14 00:21:40;;;;;;;10.13;9.07;;;11.10;99.90;;;;;;4973833;28;20203;-77
2023/05/14 00:24:07;;;;;;;11.00;9.90;;;11.10;99.90;;;;;;4979067;28;20203;-79
2023/05/14 00:26:33;;;;;;;10.63;8.77;;;11.10;99.90;;;;;;4959359;29;20295;-78
2023/05/14 00:29:00;;;;;;;10.17;9.00;;;11.10;99.90;;;;;;4975384;28;20203;-79
2023/05/14 00:31:27;;;;;;;11.73;9.77;;;11.10;99.90;;;;;;4962578;28;20206;-78
2023/05/14 00:33:55;;;;;;;13.27;12.00;;;11.10;99.90;;;;;;4977588;28;20207;-80
2023/05/14 00:36:22;;;;;;;15.23;13.83;;;11.10;99.90;;;;;;4965030;28;20218;-78
2023/05/14 00:38:49;;;;;;;11.50;10.40;;;11.10;99.90;;;;;;4974548;28;20199;-78
2023/05/14 00:41:16;;;;;;;11.03;9.60;;;11.10;99.90;;;;;;4967707;28;20294;-79
2023/05/14 00:43:43;;;;;;;13.07;11.87;;;11.10;99.90;;;;;;4960595;28;20205;-78
2023/05/14 00:46:11;;;;;;;12.07;10.60;;;11.10;99.90;;;;;;4982630;28;20214;-78
2023/05/14 00:48:38;;;;;;;14.77;10.53;;;11.20;99.90;;;;;;4969202;28;20240;-79
2023/05/14 00:51:07;;;;;;;12.27;10.53;;;11.20;99.90;;;;;;4963833;29;20266;-78
2023/05/14 00:53:35;;;;;;;13.20;11.80;;;11.10;99.90;;;;;;4963618;28;20209;-79
2023/05/14 00:56:02;;;;;;;12.77;11.47;;;11.10;99.90;;;;;;4966588;28;20200;-79
2023/05/14 00:58:29;;;;;;;17.83;16.33;;;11.10;99.90;;;;;;4979883;28;20201;-78
2023/05/14 01:00:57;;;;;;;12.57;11.37;;;11.10;99.90;;;;;;4962971;28;20204;-78
2023/05/14 01:03:23;;;;;;;11.97;10.77;;;11.10;99.90;;;;;;4961783;28;20205;-77
2023/05/14 01:05:59;;;;;;;12.63;11.27;;;11.10;99.90;;;;;;4961354;28;20212;-78
2023/05/14 01:08:33;;;;;;;10.90;9.80;;;11.10;99.90;;;;;;4972032;28;20218;-77
2023/05/14 01:11:05;;;;;;;11.57;10.37;;;11.10;99.90;;;;;;4982096;28;20198;-78
2023/05/14 01:13:38;;;;;;;15.27;13.97;;;11.10;99.90;;;;;;4959706;28;20200;-77
2023/05/14 01:16:12;;;;;;;12.83;11.53;;;11.10;99.90;;;;;;4967028;28;20203;-78
2023/05/14 01:18:42;;;;;;;13.47;12.20;;;11.10;99.90;;;;;;4963796;28;20734;-79
2023/05/14 01:21:32;;;;;;;13.40;12.10;;;11.10;99.90;;;;;;4975507;28;20212;-77
2023/05/14 01:23:59;;;;;;;11.60;10.37;;;11.10;99.90;;;;;;4966678;28;20290;-78
2023/05/14 01:26:26;;;;;;;11.10;10.00;;;11.10;99.90;;;;;;4967190;28;20229;-78
2023/05/14 01:28:56;;;;;;;10.37;9.37;;;11.10;99.90;;;;;;4979804;28;20696;-78
2023/05/14 01:31:28;;;;;;;10.37;9.37;;;11.10;99.90;;;;;;4963711;29;20271;-78
2023/05/14 01:33:58;;;;;;;12.43;11.33;;;11.10;99.90;;;;;;4965313;28;20226;-78
2023/05/14 01:36:27;;;;;;;14.43;13.17;;;11.00;99.90;;;;;;4958129;28;20286;-77
2023/05/14 01:38:56;;;;;;;12.53;11.27;;;11.00;99.90;;;;;;4965860;28;20267;-78
2023/05/14 01:41:24;;;;;;;13.10;11.77;;;11.00;99.90;;;;;;4966222;28;20199;-79
2023/05/14 01:43:51;;;;;;;11.50;10.30;;;11.00;99.90;;;;;;4977745;28;20210;-79
2023/05/14 01:46:18;;;;;;;11.03;9.93;;;11.00;99.90;;;;;;4966035;28;20270;-78
2023/05/14 01:48:45;;;;;;;12.17;11.07;;;10.90;99.90;;;;;;4971245;28;20229;-78
2023/05/14 01:51:13;;;;;;;12.43;11.27;;;10.80;99.90;;;;;;4977757;28;20207;-78
2023/05/14 01:53:41;;;;;;;14.30;13.10;;;10.80;99.90;;;;;;4964961;28;20197;-79
2023/05/14 01:56:08;;;;;;;11.00;9.83;;;10.80;99.90;;;;;;4963076;28;20229;-78
2023/05/14 01:58:35;;;;;;;14.47;13.27;;;10.70;99.90;;;;;;4967656;28;20189;-78
2023/05/14 02:01:02;;;;;;;12.10;10.70;;;10.70;99.90;;;;;;4966622;28;20606;-78
2023/05/14 02:03:29;;;;;;;10.73;9.63;;;10.60;99.90;;;;;;4982688;28;20197;-77
2023/05/14 02:05:55;;;;;;;12.97;11.53;;;10.60;99.90;;;;;;4970495;28;20213;-78
2023/05/14 02:08:22;;;;;;;16.80;15.40;;;10.60;99.90;;;;;;4966470;28;20658;-78
2023/05/14 02:10:50;;;;;;;12.40;11.10;;;10.60;99.90;;;;;;4967652;28;20216;-78
2023/05/14 02:13:17;;;;;;;18.40;16.77;;;10.60;99.90;;;;;;4981897;28;20198;-77
2023/05/14 02:15:44;;;;;;;14.40;13.10;;;10.60;99.90;;;;;;4960897;28;20210;-77
2023/05/14 02:18:11;;;;;;;12.90;11.60;;;10.60;99.90;;;;;;4983855;28;20262;-78
2023/05/14 02:20:38;;;;;;;13.87;12.57;;;10.60;99.90;;;;;;4979353;28;20288;-79
2023/05/14 02:23:05;;;;;;;16.13;14.77;;;10.70;99.90;;;;;;4976890;28;20205;-79
2023/05/14 02:25:32;;;;;;;15.63;14.23;;;10.60;99.90;;;;;;4976064;28;20202;-79
2023/05/14 02:28:00;;;;;;;15.33;13.97;;;10.60;99.90;;;;;;4985501;28;20226;-79
2023/05/14 02:30:28;;;;;;;12.37;11.10;;;10.60;99.90;;;;;;4969399;28;20225;-78
2023/05/14 02:32:55;;;;;;;13.80;12.60;;;10.60;99.90;;;;;;4966609;28;20296;-79
2023/05/14 02:35:22;;;;;;;15.87;14.40;;;10.60;99.90;;;;;;4969765;28;20229;-79
2023/05/14 02:37:49;;;;;;;12.43;10.97;;;10.70;99.90;;;;;;4969890;28;20226;-79
2023/05/14 02:40:16;;;;;;;13.07;11.60;;;10.70;99.90;;;;;;4984488;28;20192;-79
2023/05/14 02:42:43;;;;;;;11.43;10.23;;;10.70;99.90;;;;;;4965080;28;20250;-78
2023/05/14 02:45:12;;;;;;;15.37;14.07;;;10.70;99.90;;;;;;4968877;28;20223;-79
2023/05/14 02:47:40;;;;;;;13.63;12.53;;;10.80;99.90;;;;;;4969961;28;20710;-79
2023/05/14 02:50:07;;;;;;;13.13;11.83;;;10.80;99.90;;;;;;4964753;28;20214;-79
2023/05/14 02:52:34;;;;;;;12.37;11.17;;;10.80;99.90;;;;;;4979218;28;20623;-80
2023/05/14 02:55:02;;;;;;;19.30;17.77;;;10.90;99.90;;;;;;4982709;28;20225;-79
2023/05/14 02:57:28;;;;;;;12.13;11.00;;;10.90;99.90;;;;;;4979114;28;20281;-77
2023/05/14 02:59:55;;;;;;;14.53;13.13;;;10.90;99.90;;;;;;4980126;28;20199;-79
2023/05/14 03:02:23;;;;;;;16.27;14.67;;;10.90;99.90;;;;;;4961457;28;20203;-79
2023/05/14 03:04:50;;;;;;;12.40;11.13;;;10.90;99.90;;;;;;4968658;28;20199;-79
2023/05/14 03:07:17;;;;;;;13.27;12.03;;;10.90;99.90;;;;;;4958696;29;20305;-78
2023/05/14 03:09:44;;;;;;;11.63;10.47;;;11.00;99.90;;;;;;4963126;28;20223;-78
2023/05/14 03:12:11;;;;;;;13.00;11.87;;;11.00;99.90;;;;;;4964355;28;20202;-78
2023/05/14 03:14:38;;;;;;;16.43;15.03;;;11.00;99.90;;;;;;4976285;28;20205;-77
2023/05/14 03:17:05;;;;;;;15.10;13.13;;;11.00;99.90;;;;;;4964635;28;20225;-77
2023/05/14 03:19:33;;;;;;;13.90;12.67;;;11.10;99.90;;;;;;4971332;28;20680;-78
2023/05/14 03:22:00;;;;;;;11.17;10.07;;;11.10;99.90;;;;;;4945533;28;20209;-78
2023/05/14 03:24:27;;;;;;;11.13;10.03;;;11.10;99.90;;;;;;4976123;28;20209;-78
2023/05/14 03:26:54;;;;;;;13.27;9.83;;;11.10;99.90;;;;;;4965724;28;20239;-78
2023/05/14 03:29:20;;;;;;;12.20;11.00;;;11.10;99.90;;;;;;4969113;28;20223;-78
2023/05/14 03:31:48;;;;;;;11.50;10.40;;;11.10;99.90;;;;;;4976452;28;20199;-79
2023/05/14 03:34:15;;;;;;;11.27;10.13;;;11.10;99.90;;;;;;4959845;29;20262;-79
2023/05/14 03:36:43;;;;;;;11.40;10.20;;;11.10;99.90;;;;;;4959869;28;20222;-79
2023/05/14 03:39:10;;;;;;;11.10;10.00;;;11.10;99.90;;;;;;4952175;29;20204;-79
2023/05/14 03:41:38;;;;;;;11.93;10.47;;;11.10;99.90;;;;;;4959852;28;20565;-79
2023/05/14 03:44:05;;;;;;;11.07;9.70;;;11.10;99.90;;;;;;4963849;28;20198;-80
2023/05/14 03:46:32;;;;;;;11.60;10.50;;;11.10;99.90;;;;;;4955549;28;20220;-78
2023/05/14 03:48:59;;;;;;;11.57;10.40;;;11.10;99.90;;;;;;4960771;28;20227;-78
2023/05/14 03:51:26;;;;;;;10.83;9.73;;;11.10;99.90;;;;;;4970433;28;20259;-79
2023/05/14 03:53:54;;;;;;;11.13;9.97;;;11.00;99.90;;;;;;4963779;28;20254;-79
2023/05/14 03:56:21;;;;;;;11.67;10.57;;;11.10;99.90;;;;;;4974394;28;20210;-79
2023/05/14 03:58:48;;;;;;;11.43;10.23;;;11.10;99.90;;;;;;4978162;28;20672;-79
2023/05/14 04:01:15;;;;;;;11.80;10.70;;;11.10;99.90;;;;;;4961896;28;20197;-79
2023/05/14 04:03:42;;;;;;;11.77;10.67;;;11.10;99.90;;;;;;4969381;28;20711;-79
2023/05/14 04:06:10;;;;;;;11.20;10.10;;;11.10;99.90;;;;;;4964211;28;20215;-78
2023/05/14 04:08:36;;;;;;;10.83;9.83;;;11.10;99.90;;;;;;4979334;28;20199;-76
2023/05/14 04:11:05;;;;;;;10.97;9.97;;;11.10;99.90;;;;;;4975862;28;20233;-79
2023/05/14 04:13:32;;;;;;;15.10;13.80;;;11.10;99.90;;;;;;4964944;28;20197;-78
2023/05/14 04:15:59;;;;;;;11.47;10.37;;;11.10;99.90;;;;;;4978280;28;20666;-78
2023/05/14 04:18:26;;;;;;;10.10;9.10;;;11.10;99.90;;;;;;4970855;28;20217;-80
2023/05/14 04:20:52;;;;;;;11.23;9.77;;;11.10;99.90;;;;;;4973709;28;20199;-79
2023/05/14 04:23:20;;;;;;;11.03;10.03;;;11.10;99.90;;;;;;4963457;28;20202;-81
2023/05/14 04:25:47;;;;;;;14.77;13.27;;;11.10;99.90;;;;;;4977825;28;20206;-79
2023/05/14 04:28:15;;;;;;;12.37;11.27;;;11.10;99.90;;;;;;4965771;28;20686;-78
2023/05/14 04:30:42;;;;;;;13.73;12.43;;;11.10;99.90;;;;;;4960941;28;20250;-80
2023/05/14 04:33:09;;;;;;;13.33;12.10;;;11.10;99.90;;;;;;4980454;28;20219;-81
2023/05/14 04:35:35;;;;;;;15.23;13.83;;;11.10;99.90;;;;;;4979565;28;20265;-80
2023/05/14 04:38:02;;;;;;;16.43;15.03;;;11.10;99.90;;;;;;4978041;28;20249;-83
2023/05/14 04:40:30;;;;;;;14.10;12.60;;;11.10;99.90;;;;;;4965430;28;20249;-79
2023/05/14 04:42:56;;;;;;;13.70;12.30;;;11.10;99.90;;;;;;4959742;28;20273;-79
2023/05/14 04:45:25;;;;;;;11.20;10.07;;;11.10;99.90;;;;;;4965878;28;20713;-78
2023/05/14 04:47:52;;;;;;;12.73;11.43;;;11.10;99.90;;;;;;4967935;28;20223;-79
2023/05/14 04:50:20;;;;;;;12.03;10.83;;;11.20;99.90;;;;;;4977345;28;20214;-80
2023/05/14 04:52:46;;;;;;;12.83;10.90;;;11.20;99.90;;;;;;4981942;28;20659;-79
2023/05/14 04:55:13;;;;;;;14.07;12.77;;;11.20;99.90;;;;;;4967037;28;20230;-79
2023/05/14 04:57:40;;;;;;;17.40;15.90;;;11.20;99.90;;;;;;4975834;28;20226;-79
2023/05/14 05:00:08;;;;;;;14.87;13.47;;;11.30;99.90;;;;;;4978791;28;20212;-79
2023/05/14 05:02:37;;;;;;;15.60;14.17;;;11.30;99.90;;;;;;4975980;28;20197;-78
2023/05/14 05:05:04;;;;;;;17.33;15.87;;;11.30;99.90;;;;;;4977969;28;20661;-79
2023/05/14 05:07:31;;;;;;;12.33;11.03;;;11.30;99.90;;;;;;4969968;28;20228;-79
2023/05/14 05:09:57;;;;;;;11.90;10.70;;;11.40;99.90;;;;;;4971337;28;20274;-78
2023/05/14 05:12:24;;;;;;;13.27;11.97;;;11.40;99.90;;;;;;4973997;28;20206;-79
2023/05/14 05:14:51;;;;;;;13.67;12.37;;;11.40;99.90;;;;;;4974930;28;20263;-77
2023/05/14 05:17:18;;;;;;;15.87;14.47;;;11.40;99.90;;;;;;4979016;28;20230;-80
2023/05/14 05:19:46;;;;;;;15.47;14.17;;;11.40;99.90;;;;;;4970277;28;20204;-79
2023/05/14 05:22:13;;;;;;;13.43;12.27;;;11.50;99.90;;;;;;4974183;28;20217;-80
2023/05/14 05:24:40;;;;;;;15.07;13.87;;;11.50;99.90;;;;;;4968125;28;20204;-80
2023/05/14 05:27:07;;;;;;;14.50;13.30;;;11.50;99.90;;;;;;4974168;28;20223;-79
2023/05/14 05:29:34;;;;;;;16.20;14.63;;;11.50;99.90;;;;;;4975528;28;20609;-80
2023/05/14 05:32:01;;;;;;;20.80;19.10;;;11.50;99.90;;;;;;4977117;28;20204;-79
2023/05/14 05:34:28;;;;;;;17.20;15.60;;;11.50;99.90;;;;;;4974142;28;20442;-79
2023/05/14 05:36:56;;;;;;;12.70;10.90;;;11.50;99.90;;;;;;4970253;28;20223;-82
2023/05/14 05:39:23;;;;;;;12.77;11.50;;;11.50;99.90;;;;;;4972247;28;20695;-79
2023/05/14 05:41:50;;;;;;;12.13;10.83;;;11.40;99.90;;;;;;4951518;28;20209;-78
2023/05/14 05:44:17;;;;;;;11.77;10.57;;;11.50;99.90;;;;;;4976839;28;20214;-78
2023/05/14 05:46:44;;;;;;;11.17;10.07;;;11.50;99.90;;;;;;4979258;28;20300;-79
2023/05/14 05:49:11;;;;;;;11.43;10.23;;;11.50;99.90;;;;;;4970675;28;20687;-78
2023/05/14 05:51:38;;;;;;;10.93;9.83;;;11.50;99.90;;;;;;4968961;28;20246;-80
2023/05/14 05:54:06;;;;;;;15.07;13.60;;;11.50;99.90;;;;;;4962296;28;20204;-78
2023/05/14 05:56:32;;;;;;;15.27;13.97;;;11.50;99.90;;;;;;4958879;28;20212;-78
2023/05/14 05:58:59;;;;;;;11.87;10.77;;;11.50;99.90;;;;;;4952297;28;20209;-80
2023/05/14 06:01:26;;;;;;;10.80;9.80;;;11.50;99.90;;;;;;4962997;28;20195;-79
2023/05/14 06:03:53;;;;;;;13.70;12.43;;;11.50;99.90;;;;;;4967572;28;20236;-80
2023/05/14 06:06:20;;;;;;;13.80;12.60;;;11.50;99.90;;;;;;4955854;28;20224;-79
2023/05/14 06:08:47;;;;;;;14.40;13.03;;;11.50;99.90;;;;;;4961012;28;20217;-79
2023/05/14 06:11:15;;;;;;;12.47;11.27;;;11.40;99.90;;;;;;4962316;28;20225;-80
2023/05/14 06:13:42;;;;;;;14.03;12.73;;;11.50;99.90;;;;;;4969295;28;20286;-80
2023/05/14 06:16:10;;;;;;;13.33;12.13;;;11.50;99.90;;;;;;4962786;28;20281;-80
2023/05/14 06:18:36;;;;;;;14.87;13.57;;;11.50;99.90;;;;;;4975373;28;20210;-80
2023/05/14 06:21:03;;;;;;;15.23;14.03;;;11.50;99.90;;;;;;4958445;28;20200;-80
2023/05/14 06:23:30;;;;;;;12.90;11.60;;;11.50;99.90;;;;;;4963759;28;20205;-80
2023/05/14 06:25:57;;;;;;;12.30;11.17;;;11.60;99.90;;;;;;4975665;28;20198;-79
2023/05/14 06:28:25;;;;;;;17.00;15.60;;;11.60;99.90;;;;;;4969849;28;20236;-80
2023/05/14 06:30:52;;;;;;;14.70;13.30;;;11.70;99.90;;;;;;4980727;28;20228;-79
2023/05/14 06:33:20;;;;;;;15.73;14.43;;;11.60;99.90;;;;;;4978255;28;20209;-78
2023/05/14 06:35:46;;;;;;;12.43;11.33;;;11.80;99.90;;;;;;4973135;28;20677;-80
2023/05/14 06:38:13;;;;;;;11.20;10.10;;;11.90;99.90;;;;;;4977150;28;20775;-83
2023/05/14 06:40:40;;;;;;;11.83;10.53;;;11.80;99.90;;;;;;4964460;28;20472;-80
2023/05/14 06:43:07;;;;;;;17.00;15.60;;;11.80;99.90;;;;;;4977243;28;20202;-78
2023/05/14 06:45:35;;;;;;;13.53;12.23;;;11.80;99.90;;;;;;4966586;28;20263;-78
2023/05/14 06:48:02;;;;;;;14.00;11.27;;;11.80;99.90;;;;;;4964905;28;20232;-80
2023/05/14 06:50:28;;;;;;;11.77;10.50;;;11.80;99.90;;;;;;4956222;28;20216;-82
2023/05/14 06:52:55;;;;;;;13.60;12.30;;;11.80;99.90;;;;;;4964299;28;20630;-84
2023/05/14 06:55:22;;;;;;;11.43;10.23;;;11.70;99.90;;;;;;4969993;28;20572;-80
2023/05/14 06:57:49;;;;;;;11.00;9.90;;;11.70;99.90;;;;;;4981263;28;20280;-81
2023/05/14 07:00:17;;;;;;;17.67;16.10;;;11.70;99.90;;;;;;4964048;28;20736;-83
2023/05/14 07:02:45;;;;;;;12.20;10.93;;;11.70;99.90;;;;;;4956445;28;20237;-82
2023/05/14 07:05:12;;;;;;;11.23;10.03;;;11.80;99.90;;;;;;4975157;28;20204;-83
2023/05/14 07:07:40;;;;;;;11.80;10.63;;;11.90;99.90;;;;;;4957719;28;20274;-82
2023/05/14 07:10:08;;;;;;;11.93;10.43;;;12.00;99.90;;;;;;4976069;28;20205;-83
2023/05/14 07:12:34;;;;;;;11.83;10.67;;;12.00;99.90;;;;;;4960736;28;20204;-84
2023/05/14 07:15:01;;;;;;;10.93;9.83;;;12.10;99.90;;;;;;4978409;28;20205;-82
2023/05/14 07:17:28;;;;;;;11.77;10.47;;;12.10;99.90;;;;;;4960857;28;20721;-84
2023/05/14 07:19:56;;;;;;;11.13;10.03;;;12.10;99.90;;;;;;4960667;28;20214;-82
2023/05/14 07:22:23;;;;;;;10.80;9.80;;;12.20;99.90;;;;;;4961624;28;20201;-84
2023/05/14 07:24:50;;;;;;;13.27;11.97;;;12.20;99.90;;;;;;4958749;28;20292;-82
2023/05/14 07:27:16;;;;;;;12.93;11.73;;;12.20;99.90;;;;;;4968458;28;20224;-83
2023/05/14 07:29:44;;;;;;;12.53;11.33;;;12.20;99.90;;;;;;4960002;28;20205;-82
2023/05/14 07:32:10;;;;;;;12.93;11.60;;;12.20;99.90;;;;;;4960575;28;20225;-81
2023/05/14 07:34:37;;;;;;;11.70;10.70;;;12.20;99.90;;;;;;4971919;28;20268;-84
2023/05/14 07:37:06;;;;;;;13.37;11.97;;;12.20;99.90;;;;;;4970416;28;20635;-80
2023/05/14 07:39:32;;;;;;;13.13;11.83;;;12.30;99.90;;;;;;4973602;28;20199;-81
2023/05/14 07:42:00;;;;;;;12.53;11.30;;;12.30;99.90;;;;;;4973875;28;20197;-83
2023/05/14 07:44:27;;;;;;;13.07;11.97;;;12.30;99.90;;;;;;4971520;28;20221;-82
2023/05/14 07:46:54;;;;;;;12.53;11.43;;;12.30;99.90;;;;;;4971499;28;20226;-82
2023/05/14 07:49:20;;;;;;;13.60;12.30;;;12.30;99.90;;;;;;4956171;28;20268;-80
2023/05/14 07:51:47;;;;;;;14.00;12.70;;;12.30;99.90;;;;;;4971152;28;20246;-82
2023/05/14 07:54:16;;;;;;;13.17;11.97;;;12.40;99.90;;;;;;4968954;28;20666;-83
2023/05/14 07:56:43;;;;;;;11.70;10.50;;;12.50;99.90;;;;;;4960041;28;20222;-83
2023/05/14 07:59:10;;;;;;;12.20;11.03;;;12.70;99.90;;;;;;4955001;28;20201;-82
2023/05/14 08:01:37;;;;;;;15.13;13.87;;;12.80;99.90;;;;;;4959880;28;20335;-84
2023/05/14 08:04:04;;;;;;;11.87;10.50;;;12.90;99.90;;;;;;4955070;28;20257;-84
2023/05/14 08:06:30;;;;;;;15.17;13.67;;;13.10;99.90;;;;;;4968685;28;20237;-84
2023/05/14 08:08:57;;;;;;;35.27;13.43;;;13.30;99.90;;;;;;4957783;28;20221;-77
2023/05/14 08:11:25;;;;;;;14.17;12.67;;;13.50;99.90;;;;;;4969423;28;20223;-79
2023/05/14 08:13:52;;;;;;;11.13;9.90;;;13.70;99.90;;;;;;4960113;28;20593;-80
2023/05/14 08:16:19;;;;;;;13.50;12.23;;;13.90;99.90;;;;;;4971024;28;20224;-79
2023/05/14 08:18:46;;;;;;;15.50;14.20;;;14.00;99.90;;;;;;4974951;28;20214;-79
2023/05/14 08:21:13;;;;;;;15.87;14.47;;;14.10;99.90;;;;;;4971344;28;20206;-80
2023/05/14 08:23:39;;;;;;;11.93;10.83;;;14.20;99.90;;;;;;4957258;28;20733;-80
2023/05/14 08:26:06;;;;;;;11.73;10.63;;;14.40;99.90;;;;;;4965274;28;20196;-81
2023/05/14 08:28:34;;;;;;;11.53;10.33;;;14.40;99.90;;;;;;4976161;28;20203;-84
2023/05/14 08:31:01;;;;;;;14.03;12.80;;;14.50;99.90;;;;;;4959572;28;20235;-83
2023/05/14 08:33:28;;;;;;;11.50;10.47;;;14.40;99.90;;;;;;4980858;28;20251;-84
2023/05/14 08:35:57;;;;;;;12.73;11.73;;;14.60;99.90;;;;;;4963687;28;20671;-80
2023/05/14 08:38:23;;;;;;;12.77;10.57;;;15.00;99.90;;;;;;4974469;28;20240;-84
2023/05/14 08:40:56;;;;;;;12.43;11.23;;;15.20;99.90;;;;;;4965947;28;20207;-79
2023/05/14 08:43:27;;;;;;;11.70;10.37;;;15.20;99.90;;;;;;4983080;28;20205;-79
2023/05/14 08:45:59;;;;;;;11.83;10.63;;;15.30;99.90;;;;;;4977552;28;20201;-80
2023/05/14 08:48:28;;;;;;;11.43;10.37;;;15.40;99.90;;;;;;4973667;28;20266;-79
2023/05/14 08:50:56;;;;;;;12.23;11.00;;;15.30;99.90;;;;;;4971657;28;20221;-77
2023/05/14 08:53:23;;;;;;;14.53;13.23;;;15.50;99.90;;;;;;4970916;28;20201;-77
2023/05/14 08:55:51;;;;;;;12.73;11.50;;;15.40;99.90;;;;;;4975496;28;20205;-79
2023/05/14 08:58:18;;;;;;;12.67;11.37;;;15.20;99.90;;;;;;4974048;28;20629;-79
2023/05/14 09:00:45;;;;;;;11.17;10.07;;;15.10;99.90;;;;;;4962646;28;20201;-80
2023/05/14 09:03:14;;;;;;;13.80;12.60;;;15.40;99.90;;;;;;4963345;28;20624;-78
2023/05/14 09:05:41;;;;;;;14.13;12.83;;;15.50;99.90;;;;;;4965742;28;20197;-80
2023/05/14 09:08:08;;;;;;;14.70;13.20;;;15.50;99.90;;;;;;4977941;28;20220;-81
2023/05/14 09:10:35;;;;;;;13.93;12.70;;;15.50;99.90;;;;;;4960901;28;20287;-79
2023/05/14 09:13:02;;;;;;;14.43;13.10;;;15.60;99.90;;;;;;4978663;28;20202;-78
2023/05/14 09:15:29;;;;;;;13.20;12.00;;;15.70;99.90;;;;;;4959450;28;20205;-79
2023/05/14 09:17:56;;;;;;;13.93;12.73;;;16.00;99.90;;;;;;4959974;28;20234;-78
2023/05/14 09:20:25;;;;;;;11.73;10.73;;;15.90;99.90;;;;;;4981423;28;20222;-77
2023/05/14 09:22:53;;;;;;;11.70;10.70;;;16.10;99.90;;;;;;4975979;28;20530;-78
2023/05/14 09:25:20;;;;;;;16.53;15.30;;;16.20;99.90;;;;;;4962134;28;20202;-78
2023/05/14 09:27:49;;;;;;;13.20;12.00;;;16.50;99.90;;;;;;4981413;28;20221;-79
2023/05/14 09:30:16;;;;;;;16.40;15.10;;;16.80;99.90;;;;;;4968562;28;20245;-80
2023/05/14 09:32:44;;;;;;;11.17;9.90;;;16.80;99.90;;;;;;4965201;28;20616;-81
2023/05/14 09:35:16;;;;;;;15.23;14.00;;;16.70;99.90;;;;;;4969191;28;20912;-80
2023/05/14 09:37:46;;;;;;;9.80;8.80;;;16.80;99.90;;;;;;4976336;28;20226;-81
2023/05/14 09:40:14;;;;;;;14.97;13.77;;;16.70;99.90;;;;;;4975278;28;20251;-82
2023/05/14 09:42:41;;;;;;;11.50;10.40;;;16.90;99.90;;;;;;4952825;28;20203;-83
2023/05/14 09:45:09;;;;;;;12.97;11.77;;;17.00;99.90;;;;;;4968859;28;20208;-81
2023/05/14 09:47:36;;;;;;;14.37;13.07;;;17.10;99.90;;;;;;4949852;29;20216;-83
2023/05/14 09:50:03;;;;;;;13.77;12.50;;;16.90;99.90;;;;;;4960493;28;20212;-81
2023/05/14 09:52:30;;;;;;;14.33;13.23;;;17.00;99.90;;;;;;4959400;28;20259;-83
2023/05/14 09:54:58;;;;;;;11.10;9.90;;;17.00;99.90;;;;;;4972017;28;20297;-83
2023/05/14 09:57:25;;;;;;;13.00;11.97;;;17.00;99.90;;;;;;4967442;28;20223;-82
2023/05/14 09:59:52;;;;;;;13.87;12.57;;;17.00;99.90;;;;;;4957585;28;20204;-82
2023/05/14 10:02:23;;;;;;;9.37;8.37;;;17.00;99.90;;;;;;4960500;28;20791;-82
2023/05/14 10:04:52;;;;;;;14.10;13.10;;;16.90;99.90;;;;;;4962826;28;20284;-82
2023/05/14 10:07:23;;;;;;;13.60;12.50;;;16.90;99.90;;;;;;4956771;28;20230;-82
2023/05/14 10:09:54;;;;;;;12.57;11.40;;;17.10;99.90;;;;;;4962657;28;20291;-83
2023/05/14 10:12:23;;;;;;;10.57;9.57;;;17.30;99.90;;;;;;4968037;28;20712;-82
2023/05/14 10:14:52;;;;;;;10.43;9.43;;;17.50;99.90;;;;;;4979114;28;20591;-82
2023/05/14 10:17:21;;;;;;;10.83;9.73;;;17.80;99.90;;;;;;4969541;28;20307;-83
2023/05/14 10:19:54;;;;;;;9.17;8.37;;;18.20;99.90;;;;;;4975835;28;20356;-82
2023/05/14 10:22:23;;;;;;;12.63;11.53;;;18.60;99.90;;;;;;4979588;28;20197;-82
2023/05/14 10:24:52;;;;;;;8.63;7.83;;;18.60;99.90;;;;;;4974250;28;20217;-82
2023/05/14 10:27:21;;;;;;;10.93;10.03;;;18.60;99.90;;;;;;4980492;28;20293;-82
2023/05/14 10:29:54;;;;;;;10.27;9.27;;;18.40;99.90;;;;;;4975268;28;20210;-80
2023/05/14 10:32:23;;;;;;;8.37;7.57;;;18.10;99.90;;;;;;4973501;28;20225;-82
2023/05/14 10:34:50;;;;;;;7.23;6.53;;;17.90;99.90;;;;;;4971186;28;20214;-81
2023/05/14 10:37:18;;;;;;;7.70;7.00;;;18.20;99.90;;;;;;4973609;28;20775;-81
2023/05/14 10:39:47;;;;;;;7.80;7.00;;;18.60;99.90;;;;;;4972371;28;20641;-82
2023/05/14 10:42:17;;;;;;;8.13;7.33;;;18.90;99.90;;;;;;4979348;28;20244;-82
2023/05/14 10:44:57;;;;;;;8.73;8.03;;;18.80;99.90;;;;;;4967195;28;20265;-83
2023/05/14 10:47:25;;;;;;;9.37;8.63;;;18.70;99.90;;;;;;4980205;28;20694;-83
2023/05/14 10:49:55;;;;;;;11.30;10.30;;;19.00;99.90;;;;;;4974605;28;20675;-80
2023/05/14 10:52:23;;;;;;;9.67;8.67;;;19.00;99.90;;;;;;4966634;28;20218;-80
2023/05/14 10:54:51;;;;;;;9.50;8.70;;;18.90;99.90;;;;;;4971008;28;20261;-80
2023/05/14 10:57:18;;;;;;;8.40;7.00;;;18.50;99.90;;;;;;4975592;28;20218;-81
2023/05/14 10:59:47;;;;;;;8.50;7.63;;;18.60;99.90;;;;;;4973431;28;20198;-80
2023/05/14 11:02:35;;;;;;;8.10;6.97;;;18.60;99.90;;;;;;4972859;28;20659;-80
2023/05/14 11:05:04;;;;;;;10.87;10.07;;;18.80;99.90;;;;;;4975824;28;20705;-84
2023/05/14 11:07:32;;;;;;;7.30;6.50;;;19.00;99.90;;;;;;4957533;28;20229;-81
2023/05/14 11:10:04;;;;;;;7.33;6.37;;;18.60;99.90;;;;;;4962078;28;20207;-84
2023/05/14 11:12:31;;;;;;;6.50;5.87;;;18.30;99.90;;;;;;4977744;28;20313;-82
2023/05/14 11:15:00;;;;;;;6.50;5.90;;;18.40;99.90;;;;;;4956107;28;20702;-81
2023/05/14 11:17:29;;;;;;;10.07;9.20;;;18.30;99.90;;;;;;4977002;28;20297;-80
2023/05/14 11:19:57;;;;;;;7.00;6.30;;;18.20;99.90;;;;;;4977104;28;20214;-84
2023/05/14 11:22:25;;;;;;;6.97;6.37;;;18.00;99.90;;;;;;4973085;28;20196;-83
2023/05/14 11:24:52;;;;;;;9.50;8.70;;;18.10;99.90;;;;;;4973462;28;20233;-82
2023/05/14 11:27:20;;;;;;;8.33;7.63;;;18.20;99.90;;;;;;4972358;28;20247;-83
2023/05/14 11:29:48;;;;;;;7.23;6.53;;;18.60;99.90;;;;;;4973065;28;20206;-82
2023/05/14 11:32:16;;;;;;;8.30;7.60;;;18.90;99.90;;;;;;4971007;28;20221;-84
2023/05/14 11:34:44;;;;;;;7.33;6.63;;;19.00;99.90;;;;;;4973846;28;20233;-83
2023/05/14 11:37:14;;;;;;;6.83;6.23;;;18.90;99.90;;;;;;4973052;28;20296;-84
2023/05/14 11:39:47;;;;;;;6.10;5.40;;;18.70;99.90;;;;;;4957295;28;20653;-82
2023/05/14 11:42:16;;;;;;;7.50;5.60;;;18.50;99.90;;;;;;4969663;28;20220;-85
2023/05/14 11:44:44;;;;;;;8.77;6.70;;;18.40;99.90;;;;;;4978773;28;20201;-79
2023/05/14 11:47:11;;;;;;;7.07;6.40;;;18.10;99.90;;;;;;4966570;28;20316;-82
2023/05/14 11:49:38;;;;;;;6.33;5.63;;;18.20;99.90;;;;;;4981617;28;20227;-84
2023/05/14 11:52:07;;;;;;;6.10;5.50;;;18.40;99.90;;;;;;4972432;28;20609;-82
2023/05/14 11:54:35;;;;;;;6.30;5.70;;;19.00;99.90;;;;;;4966983;28;20220;-80
2023/05/14 11:57:08;;;;;;;5.77;5.27;;;18.90;99.90;;;;;;4955240;28;20225;-82
2023/05/14 11:59:35;;;;;;;7.00;5.27;;;18.90;99.90;;;;;;4966468;28;20277;-81
2023/05/14 12:02:03;;;;;;;6.30;5.40;;;18.80;99.90;;;;;;4958585;28;20241;-79
2023/05/14 12:04:31;;;;;;;6.30;5.70;;;18.70;99.90;;;;;;4974581;28;20193;-81
2023/05/14 12:06:59;;;;;;;6.13;5.53;;;18.80;99.90;;;;;;4971639;28;20228;-79
2023/05/14 12:09:27;;;;;;;5.97;5.47;;;18.50;99.90;;;;;;4974556;28;20253;-80
2023/05/14 12:11:55;;;;;;;7.20;6.50;;;18.50;99.90;;;;;;4966761;28;20322;-82
2023/05/14 12:14:23;;;;;;;8.60;7.80;;;18.40;99.90;;;;;;4968262;28;20201;-82
2023/05/14 12:16:50;;;;;;;11.03;8.17;;;18.50;99.90;;;;;;4968272;28;20229;-76
2023/05/14 12:19:19;;;;;;;8.87;8.17;;;18.50;99.90;;;;;;4967989;28;20209;-80
2023/05/14 12:21:49;;;;;;;9.77;8.97;;;18.60;99.90;;;;;;4970771;28;20210;-80
2023/05/14 12:24:18;;;;;;;5.93;5.43;;;18.60;99.90;;;;;;4971058;28;20216;-79
2023/05/14 12:26:45;;;;;;;6.10;5.50;;;18.70;99.90;;;;;;4972525;28;20225;-80
2023/05/14 12:29:15;;;;;;;5.63;4.90;;;18.50;99.90;;;;;;4956872;28;20207;-81
2023/05/14 12:31:46;;;;;;;7.23;6.33;;;18.60;99.90;;;;;;4960997;28;20205;-80
2023/05/14 12:34:13;;;;;;;6.90;6.00;;;18.80;99.90;;;;;;4967033;28;20201;-81